Strona główna
METAR-TAF:

METAR-TAF

Lotnisko :

Châteauroux, Francja

Szerokość geograficzna: 46-51N, Długość geograficzna: 001-43E, wysokość: 160 m

Aktualna obserwacja pogody

Raport powstał 25 minut temu, godzina 13:30 UTC
Wiatr 5 kt od zachód, zmienny między południowy zachód i północ
Temperatura 32°C
Wilgotność 21%
Ciśnienie 1017 hPa
Widzialność 10 km lub więcej
Brak chmur poniżej 1500 m i brak chmur cumulonimbus

METAR: LFLX 241330Z AUTO 28005KT 230V360 CAVOK 32/07 Q1017 NOSIG

czas: 15:55 (13:55 UTC)

Prognoza

Raport powstał 2 godziny i 55 minut temu, godzina 11:00 UTC
Prognoza ważna od 24 godzina 12 UTC do 25 godzina 18 UTC
Wiatr 5 kt od południowo-południowy wschód
Widzialność 10 km lub więcej
Brak chmur poniżej 1500 m i brak chmur cumulonimbus
Stopniowe zmiany
od 24 godzina 14 UTC do 24 godzina 16 UTC
Wiatr 3 kt z kierunków zmiennych

TAF: LFLX 241100Z 2412/2518 15005KT CAVOK BECMG 2414/2416 VRB03KT

Obserwacja i prognoza pogody dla ponad 4000 lotnisk (raport METAR i TAF).

Dostępne stacje oznaczono żółtymi i czerwonymi punktami na mapie.

Najedź kursorem aby zobaczyć nazwę stacji.

Kliknij aby zobaczyć obserwacje i prognozy pogody.

Aby zmienić mapę: kliknij na zielony przycisk z czarnym krzyżykiem, aby powiększyć; na zielony przycisk z myślnikiem, aby pomniejszyć; na zielone strzałki, aby przejść do map sąsiednich.


METAR-TAF: